createdAt,value
2022-12-31T00:01:16.839Z,2.60
2022-12-31T00:03:44.144Z,2.23
2022-12-31T00:06:20.821Z,2.43
2022-12-31T00:08:47.672Z,1.87
2022-12-31T00:11:15.454Z,1.90
2022-12-31T00:13:43.139Z,1.80
2022-12-31T00:16:12.721Z,2.03
2022-12-31T00:18:39.314Z,2.37
2022-12-31T00:21:07.939Z,1.83
2022-12-31T00:23:35.368Z,1.80
2022-12-31T00:26:09.936Z,1.60
2022-12-31T00:28:37.624Z,1.40
2022-12-31T00:31:16.274Z,1.70
2022-12-31T00:33:43.806Z,1.57
2022-12-31T00:36:15.431Z,1.60
2022-12-31T00:38:43.907Z,1.50
2022-12-31T00:41:11.145Z,1.20
2022-12-31T00:43:37.991Z,1.73
2022-12-31T00:46:06.358Z,1.40
2022-12-31T00:48:33.856Z,1.47
2022-12-31T00:51:01.228Z,1.20
2022-12-31T00:53:28.314Z,1.13
2022-12-31T00:56:13.188Z,1.13
2022-12-31T00:58:39.592Z,1.20
2022-12-31T01:01:09.892Z,1.27
2022-12-31T01:03:36.541Z,1.30
2022-12-31T01:06:02.907Z,1.20
2022-12-31T01:08:29.251Z,1.10
2022-12-31T01:11:14.010Z,1.30
2022-12-31T01:13:40.378Z,1.63
2022-12-31T01:16:09.054Z,1.40
2022-12-31T01:18:35.603Z,1.30
2022-12-31T01:21:04.016Z,1.40
2022-12-31T01:23:31.036Z,1.40
2022-12-31T01:26:01.249Z,1.20
2022-12-31T01:28:28.420Z,1.00
2022-12-31T01:30:55.389Z,1.10
2022-12-31T01:33:22.085Z,1.20
2022-12-31T01:35:49.273Z,1.20
2022-12-31T01:38:15.749Z,1.50
2022-12-31T01:40:42.364Z,1.00
2022-12-31T01:43:16.347Z,1.00
2022-12-31T01:45:45.790Z,1.10
2022-12-31T01:48:17.326Z,1.00
2022-12-31T01:50:46.481Z,1.17
2022-12-31T01:53:14.385Z,1.20
2022-12-31T01:55:50.190Z,1.30
2022-12-31T01:58:27.543Z,1.00
2022-12-31T02:00:54.954Z,1.10
2022-12-31T02:03:22.821Z,0.87
2022-12-31T02:06:03.269Z,1.10
2022-12-31T02:08:30.046Z,1.40
2022-12-31T02:10:56.462Z,1.10
2022-12-31T02:13:23.197Z,0.90
2022-12-31T02:16:25.206Z,1.07
2022-12-31T02:19:07.746Z,1.20
2022-12-31T02:21:42.056Z,1.13
2022-12-31T02:24:32.097Z,1.00
2022-12-31T02:27:23.988Z,1.10
2022-12-31T02:30:01.845Z,0.80
2022-12-31T02:32:31.708Z,1.07
2022-12-31T02:35:16.660Z,1.37
2022-12-31T02:37:48.025Z,1.23
2022-12-31T02:40:17.319Z,0.90
2022-12-31T02:42:43.663Z,1.00
2022-12-31T02:45:15.006Z,1.20
2022-12-31T02:47:54.656Z,1.10
2022-12-31T02:50:56.953Z,1.10
2022-12-31T02:53:34.196Z,2.40
2022-12-31T02:56:16.548Z,1.57
2022-12-31T02:59:24.951Z,1.20
2022-12-31T03:02:14.411Z,1.30
2022-12-31T03:04:49.449Z,0.90
2022-12-31T03:07:21.756Z,1.20
2022-12-31T03:09:48.736Z,1.20
2022-12-31T03:12:35.536Z,1.30
2022-12-31T03:15:06.484Z,1.10
2022-12-31T03:17:33.937Z,1.20
2022-12-31T03:20:18.971Z,1.00
2022-12-31T03:22:45.693Z,1.10
2022-12-31T03:25:37.873Z,1.10
2022-12-31T03:28:12.360Z,1.00
2022-12-31T03:30:41.957Z,1.00
2022-12-31T03:33:08.951Z,1.57
2022-12-31T03:35:37.281Z,1.27
2022-12-31T03:38:04.687Z,1.17
2022-12-31T03:40:32.709Z,1.13
2022-12-31T03:42:59.104Z,1.43
2022-12-31T03:45:25.473Z,1.50
2022-12-31T03:47:52.040Z,1.30
2022-12-31T03:50:19.937Z,1.37
2022-12-31T03:52:46.454Z,0.80
2022-12-31T03:55:13.265Z,1.10
2022-12-31T03:57:40.061Z,1.00
2022-12-31T04:00:09.963Z,0.83
2022-12-31T04:02:36.763Z,1.20
2022-12-31T04:05:03.614Z,1.00
2022-12-31T04:07:29.981Z,1.00
2022-12-31T04:09:57.026Z,1.27
2022-12-31T04:12:23.371Z,1.03
2022-12-31T04:14:49.748Z,1.10
2022-12-31T04:17:16.082Z,1.30
2022-12-31T04:19:42.441Z,1.40
2022-12-31T04:22:08.988Z,1.70
2022-12-31T04:24:35.309Z,1.70
2022-12-31T04:27:07.235Z,1.37
2022-12-31T04:29:34.411Z,1.20
2022-12-31T04:32:01.200Z,1.30
2022-12-31T04:34:27.804Z,2.27
2022-12-31T04:36:54.222Z,1.20
2022-12-31T04:39:20.642Z,1.20
2022-12-31T04:41:47.137Z,1.00
2022-12-31T04:44:13.520Z,1.10
2022-12-31T04:46:39.869Z,1.00
2022-12-31T04:49:06.332Z,1.20
2022-12-31T04:51:33.643Z,1.00
2022-12-31T04:54:00.451Z,1.03
2022-12-31T04:56:28.297Z,1.20
2022-12-31T04:58:55.457Z,1.10
2022-12-31T05:01:22.485Z,1.00
2022-12-31T05:03:49.269Z,1.10
2022-12-31T05:06:18.540Z,0.90
2022-12-31T05:08:45.442Z,1.10
2022-12-31T05:11:12.261Z,0.97
2022-12-31T05:13:39.116Z,1.43
2022-12-31T05:16:06.433Z,1.40
2022-12-31T05:18:33.473Z,0.87
2022-12-31T05:21:00.092Z,1.10
2022-12-31T05:23:26.846Z,1.07
2022-12-31T05:25:53.428Z,1.13
2022-12-31T05:28:20.209Z,1.50
2022-12-31T05:30:50.101Z,1.30
2022-12-31T05:33:17.638Z,1.20
2022-12-31T05:35:44.737Z,1.20
2022-12-31T05:38:11.513Z,1.00
2022-12-31T05:40:38.100Z,1.43
2022-12-31T05:43:04.449Z,1.40
2022-12-31T05:45:31.424Z,1.63
2022-12-31T05:47:58.254Z,1.17
2022-12-31T05:50:24.586Z,1.10
2022-12-31T05:52:50.950Z,1.30
2022-12-31T05:55:17.503Z,1.50
2022-12-31T05:57:43.851Z,1.17
2022-12-31T06:00:10.857Z,1.53
2022-12-31T06:02:37.260Z,1.23
2022-12-31T06:05:04.087Z,1.53
2022-12-31T06:07:30.431Z,1.80
2022-12-31T06:09:56.773Z,1.30
2022-12-31T06:12:23.113Z,1.27
2022-12-31T06:14:49.470Z,1.30
2022-12-31T06:17:15.810Z,1.20
2022-12-31T06:19:42.140Z,1.10
2022-12-31T06:22:08.486Z,1.50
2022-12-31T06:24:34.829Z,1.33
2022-12-31T06:27:01.163Z,1.90
2022-12-31T06:29:27.563Z,1.50
2022-12-31T06:31:53.891Z,1.30
2022-12-31T06:34:20.233Z,1.70
2022-12-31T06:36:46.568Z,1.20
2022-12-31T06:39:12.942Z,1.37
2022-12-31T06:41:39.298Z,1.20
2022-12-31T06:44:05.978Z,1.17
2022-12-31T06:46:32.407Z,1.03
2022-12-31T06:48:58.744Z,1.10
2022-12-31T06:51:25.099Z,1.20
2022-12-31T06:53:51.829Z,1.67
2022-12-31T06:56:31.267Z,1.47
2022-12-31T06:59:00.364Z,1.50
2022-12-31T07:01:45.822Z,1.67
2022-12-31T07:04:33.376Z,1.43
2022-12-31T07:07:14.982Z,1.27
2022-12-31T07:09:57.317Z,1.60
2022-12-31T07:12:40.283Z,1.73
2022-12-31T07:15:16.590Z,1.30
2022-12-31T07:17:54.833Z,1.47
2022-12-31T07:20:21.685Z,1.20
2022-12-31T07:22:48.435Z,1.40
2022-12-31T07:25:16.953Z,1.13
2022-12-31T07:28:08.415Z,1.30
2022-12-31T07:30:46.924Z,1.60
2022-12-31T07:33:27.964Z,1.23
2022-12-31T07:36:05.411Z,1.60
2022-12-31T07:39:05.648Z,1.33
2022-12-31T07:41:50.580Z,1.20
2022-12-31T07:44:34.088Z,1.23
2022-12-31T07:47:03.245Z,1.10
2022-12-31T07:49:32.853Z,1.60
2022-12-31T07:51:59.570Z,1.60
2022-12-31T07:54:26.003Z,1.27
2022-12-31T07:56:52.455Z,1.70
2022-12-31T07:59:36.810Z,1.50
2022-12-31T08:02:08.128Z,1.43
2022-12-31T08:04:49.636Z,1.40
2022-12-31T08:07:25.925Z,1.60
2022-12-31T08:10:18.206Z,1.57
2022-12-31T08:12:46.876Z,1.70
2022-12-31T08:15:15.953Z,1.93
2022-12-31T08:17:43.282Z,1.70
2022-12-31T08:20:17.535Z,1.40
2022-12-31T08:22:51.019Z,1.57
2022-12-31T08:25:33.576Z,1.70
2022-12-31T08:28:12.675Z,1.87
2022-12-31T08:30:52.257Z,1.90
2022-12-31T08:33:44.336Z,1.70
2022-12-31T08:36:38.467Z,1.53
2022-12-31T08:39:33.225Z,1.70
2022-12-31T08:42:03.679Z,1.70
2022-12-31T08:44:45.046Z,1.60
2022-12-31T08:47:38.711Z,1.67
2022-12-31T08:50:05.893Z,1.63
2022-12-31T08:52:32.533Z,1.70
2022-12-31T08:54:59.332Z,1.30
2022-12-31T08:57:57.623Z,2.03
2022-12-31T09:00:24.386Z,1.80
2022-12-31T09:02:56.675Z,1.50
2022-12-31T09:05:34.988Z,1.43
2022-12-31T09:08:28.395Z,1.60
2022-12-31T09:11:23.508Z,1.40
2022-12-31T09:14:30.649Z,1.40
2022-12-31T09:17:24.795Z,1.50
2022-12-31T09:19:51.700Z,1.60
2022-12-31T09:22:18.279Z,1.40
2022-12-31T09:24:44.849Z,1.43
2022-12-31T09:27:27.416Z,1.70
2022-12-31T09:30:09.808Z,1.50
2022-12-31T09:33:00.597Z,1.73
2022-12-31T09:35:38.421Z,1.50
2022-12-31T09:38:16.416Z,1.50
2022-12-31T09:41:11.412Z,2.20
2022-12-31T09:44:03.383Z,1.43
2022-12-31T09:47:09.134Z,1.57
2022-12-31T09:50:18.747Z,1.30
2022-12-31T09:53:00.699Z,1.10
2022-12-31T09:55:37.940Z,1.43
2022-12-31T09:58:35.304Z,1.73
2022-12-31T10:01:22.698Z,1.30
2022-12-31T10:04:10.764Z,1.43
2022-12-31T10:07:00.475Z,1.37
2022-12-31T10:09:41.442Z,1.10
2022-12-31T10:12:22.838Z,1.50
2022-12-31T10:15:27.166Z,1.40
2022-12-31T10:18:17.941Z,1.57
2022-12-31T10:21:20.808Z,1.30
2022-12-31T10:23:54.032Z,1.20
2022-12-31T10:26:53.541Z,1.30
2022-12-31T10:29:47.653Z,1.53
2022-12-31T10:32:43.471Z,1.30
2022-12-31T10:35:31.740Z,1.40
2022-12-31T10:38:14.051Z,1.40
2022-12-31T10:40:58.531Z,1.10
2022-12-31T10:43:27.755Z,1.10
2022-12-31T10:46:29.655Z,1.10
2022-12-31T10:49:11.284Z,1.20
2022-12-31T10:52:10.476Z,1.10
2022-12-31T10:54:46.039Z,1.07
2022-12-31T10:57:36.427Z,1.30
2022-12-31T11:00:16.610Z,1.43
2022-12-31T11:03:17.265Z,1.37
2022-12-31T11:06:26.577Z,1.10
2022-12-31T11:09:04.948Z,1.23
2022-12-31T11:12:30.169Z,1.70
2022-12-31T11:14:56.496Z,1.50
2022-12-31T11:17:37.374Z,1.30
2022-12-31T11:20:03.911Z,1.60
2022-12-31T11:22:58.214Z,1.17
2022-12-31T11:25:55.684Z,1.43
2022-12-31T11:28:41.516Z,2.03
2022-12-31T11:31:39.340Z,1.40
2022-12-31T11:34:30.746Z,1.43
2022-12-31T11:37:16.120Z,1.33
2022-12-31T11:40:15.033Z,1.63
2022-12-31T11:43:00.794Z,1.20
2022-12-31T11:45:50.797Z,1.83
2022-12-31T11:48:48.064Z,2.03
2022-12-31T11:51:52.131Z,1.37
2022-12-31T11:54:41.226Z,1.53
2022-12-31T11:57:16.548Z,1.47
2022-12-31T11:59:43.112Z,1.40
2022-12-31T12:02:24.792Z,1.13
2022-12-31T12:04:52.443Z,1.60
2022-12-31T12:07:19.973Z,0.97
2022-12-31T12:09:46.645Z,1.40
2022-12-31T12:12:13.520Z,1.20
2022-12-31T12:14:42.906Z,1.23
2022-12-31T12:17:32.146Z,1.10
2022-12-31T12:20:13.350Z,1.23
2022-12-31T12:22:49.653Z,1.63
2022-12-31T12:25:20.937Z,2.00
2022-12-31T12:27:47.481Z,1.53
2022-12-31T12:30:26.155Z,1.60
2022-12-31T12:33:01.681Z,1.80
2022-12-31T12:35:31.663Z,1.00
2022-12-31T12:38:07.662Z,1.80
2022-12-31T12:40:34.947Z,1.40
2022-12-31T12:43:02.232Z,1.30
2022-12-31T12:45:40.601Z,1.43
2022-12-31T12:48:18.695Z,1.47
2022-12-31T12:50:48.154Z,1.60
2022-12-31T12:53:39.370Z,1.60
2022-12-31T12:56:18.665Z,1.90
2022-12-31T12:59:10.050Z,1.83
2022-12-31T13:01:46.520Z,1.40
2022-12-31T13:04:40.455Z,1.43
2022-12-31T13:07:24.509Z,1.33
2022-12-31T13:10:16.189Z,1.33
2022-12-31T13:15:50.108Z,1.10
2022-12-31T13:18:54.679Z,1.80
2022-12-31T13:21:23.727Z,1.60
2022-12-31T13:23:53.374Z,2.03
2022-12-31T13:26:24.088Z,1.77
2022-12-31T13:28:52.577Z,1.80
2022-12-31T13:31:26.083Z,1.70
2022-12-31T13:34:01.199Z,1.50
2022-12-31T13:36:29.774Z,1.83
2022-12-31T13:39:00.641Z,1.80
2022-12-31T13:41:31.830Z,1.37
2022-12-31T13:44:26.957Z,1.63
2022-12-31T13:47:12.972Z,2.07
2022-12-31T13:49:56.250Z,3.17
2022-12-31T13:53:00.129Z,2.70
2022-12-31T13:55:32.288Z,2.30
2022-12-31T13:58:23.011Z,2.43
2022-12-31T14:00:56.232Z,2.80
2022-12-31T14:03:31.571Z,3.00
2022-12-31T14:06:06.935Z,2.50
2022-12-31T14:08:33.325Z,2.10
2022-12-31T14:11:44.083Z,2.37
2022-12-31T14:14:18.668Z,2.00
2022-12-31T14:16:52.998Z,3.07
2022-12-31T14:19:44.185Z,2.63
2022-12-31T14:22:30.718Z,2.00
2022-12-31T14:25:00.727Z,2.00
2022-12-31T14:27:31.908Z,1.77
2022-12-31T14:30:03.044Z,1.80
2022-12-31T14:32:38.443Z,1.50
2022-12-31T14:35:22.394Z,1.57
2022-12-31T14:38:01.117Z,1.73
2022-12-31T14:40:54.034Z,1.93
2022-12-31T14:43:52.766Z,1.90
2022-12-31T14:46:38.872Z,1.83
2022-12-31T14:49:52.924Z,1.80
2022-12-31T14:52:25.548Z,2.00
2022-12-31T14:55:01.459Z,2.23
2022-12-31T14:58:16.794Z,11.53
2022-12-31T15:00:38.112Z,4.30
2022-12-31T15:03:23.418Z,5.73
2022-12-31T15:05:58.956Z,2.97
2022-12-31T15:09:07.918Z,4.10
2022-12-31T15:11:48.254Z,1.80
2022-12-31T15:14:26.695Z,3.27
2022-12-31T15:17:06.593Z,2.57
2022-12-31T15:19:51.424Z,2.47
2022-12-31T15:22:44.933Z,2.10
2022-12-31T15:25:40.396Z,2.00
2022-12-31T15:28:30.454Z,2.07
2022-12-31T15:31:03.552Z,2.20
2022-12-31T15:33:34.480Z,2.40
2022-12-31T15:36:13.730Z,2.10
2022-12-31T15:38:41.605Z,2.30
2022-12-31T15:41:18.536Z,1.97
2022-12-31T15:43:59.523Z,3.00
2022-12-31T15:46:31.564Z,3.03
2022-12-31T15:49:06.819Z,3.53
2022-12-31T15:52:01.874Z,4.93
2022-12-31T15:54:41.236Z,3.30
2022-12-31T15:57:16.250Z,2.30
2022-12-31T15:59:43.578Z,1.93
2022-12-31T16:02:21.062Z,1.93
2022-12-31T16:04:48.906Z,2.13
2022-12-31T16:07:17.005Z,2.00
2022-12-31T16:09:48.176Z,2.00
2022-12-31T16:12:32.508Z,2.27
2022-12-31T16:15:01.529Z,2.40
2022-12-31T16:17:33.737Z,1.83
2022-12-31T16:20:01.872Z,1.70
2022-12-31T16:22:36.791Z,1.57
2022-12-31T16:25:30.110Z,1.63
2022-12-31T16:27:51.792Z,1.77
2022-12-31T16:30:30.299Z,1.80
2022-12-31T16:33:05.287Z,2.03
2022-12-31T16:35:34.356Z,2.60
2022-12-31T16:38:15.288Z,1.87
2022-12-31T16:40:45.511Z,1.93
2022-12-31T16:43:37.682Z,4.00
2022-12-31T16:46:18.696Z,2.60
2022-12-31T16:48:47.985Z,2.90
2022-12-31T16:51:19.738Z,2.97
2022-12-31T16:53:47.364Z,2.77
2022-12-31T16:56:22.929Z,1.70
2022-12-31T16:58:53.161Z,4.47
2022-12-31T17:01:30.245Z,3.20
2022-12-31T17:04:00.564Z,3.30
2022-12-31T17:06:28.335Z,3.97
2022-12-31T17:08:59.364Z,1.70
2022-12-31T17:11:41.805Z,1.80
2022-12-31T17:14:11.040Z,1.60
2022-12-31T17:16:59.538Z,1.80
2022-12-31T17:19:35.169Z,2.10
2022-12-31T17:22:03.146Z,3.80
2022-12-31T17:24:29.844Z,4.80
2022-12-31T17:27:04.833Z,6.10
2022-12-31T17:29:31.823Z,9.87
2022-12-31T17:32:17.862Z,4.60
2022-12-31T17:34:49.168Z,4.90
2022-12-31T17:37:24.968Z,3.27
2022-12-31T17:40:10.880Z,3.47
2022-12-31T17:42:46.068Z,3.17
2022-12-31T17:45:20.233Z,3.50
2022-12-31T17:47:50.850Z,4.43
2022-12-31T17:50:20.391Z,4.20
2022-12-31T17:52:47.528Z,4.40
2022-12-31T17:55:13.995Z,3.73
2022-12-31T17:57:50.242Z,4.30
2022-12-31T18:00:19.759Z,3.97
2022-12-31T18:02:46.275Z,4.33
2022-12-31T18:05:19.953Z,4.70
2022-12-31T18:07:47.169Z,4.40
2022-12-31T18:10:15.295Z,4.57
2022-12-31T18:12:44.008Z,3.83
2022-12-31T18:15:15.991Z,5.03
2022-12-31T18:17:42.908Z,4.63
2022-12-31T18:20:09.901Z,7.53
2022-12-31T18:22:36.930Z,6.33
2022-12-31T18:25:04.088Z,8.70
2022-12-31T18:27:30.693Z,8.17
2022-12-31T18:30:04.085Z,11.30
2022-12-31T18:32:32.841Z,7.20
2022-12-31T18:34:59.288Z,7.87
2022-12-31T18:37:28.182Z,9.97
2022-12-31T18:39:54.631Z,7.23
2022-12-31T18:42:25.375Z,5.30
2022-12-31T18:44:51.730Z,6.97
2022-12-31T18:47:22.961Z,7.23
2022-12-31T18:49:50.060Z,7.50
2022-12-31T18:52:21.509Z,7.93
2022-12-31T18:54:48.302Z,6.83
2022-12-31T18:57:15.956Z,8.43
2022-12-31T18:59:42.309Z,7.80
2022-12-31T19:02:20.560Z,5.90
2022-12-31T19:04:47.933Z,6.73
2022-12-31T19:07:14.283Z,6.33
2022-12-31T19:09:45.506Z,7.13
2022-12-31T19:12:13.624Z,9.23
2022-12-31T19:14:40.383Z,8.50
2022-12-31T19:19:32.123Z,8.77
2022-12-31T19:21:58.488Z,7.53
2022-12-31T19:24:26.905Z,7.90
2022-12-31T19:26:54.176Z,11.23
2022-12-31T19:29:22.724Z,10.60
2022-12-31T19:31:49.412Z,12.43
2022-12-31T19:34:16.516Z,13.77
2022-12-31T19:36:44.267Z,10.80
2022-12-31T19:39:15.739Z,10.80
2022-12-31T19:41:43.669Z,7.90
2022-12-31T19:44:18.524Z,7.87
2022-12-31T19:46:46.007Z,6.87
2022-12-31T19:49:13.968Z,9.97
2022-12-31T19:51:41.094Z,9.20
2022-12-31T19:54:07.921Z,10.60
2022-12-31T19:56:34.272Z,9.97
2022-12-31T19:59:05.646Z,8.80
2022-12-31T20:01:32.077Z,9.70
2022-12-31T20:03:58.495Z,14.83
2022-12-31T20:06:24.890Z,16.53
2022-12-31T20:08:51.226Z,26.90
2022-12-31T20:11:20.587Z,20.80
2022-12-31T20:13:48.201Z,24.80
2022-12-31T20:16:17.032Z,39.63
2022-12-31T20:18:44.877Z,35.17
2022-12-31T20:21:14.419Z,46.73
2022-12-31T20:23:40.832Z,58.20
2022-12-31T20:26:07.173Z,31.37
2022-12-31T20:28:33.600Z,23.80
2022-12-31T20:31:05.274Z,19.50
2022-12-31T20:33:31.681Z,15.33
2022-12-31T20:36:02.228Z,16.03
2022-12-31T20:38:28.548Z,16.27
2022-12-31T20:40:54.899Z,16.20
2022-12-31T20:43:21.250Z,17.83
2022-12-31T20:45:47.742Z,18.53
2022-12-31T20:48:14.292Z,18.33
2022-12-31T20:50:40.835Z,17.40
2022-12-31T20:53:07.193Z,17.60
2022-12-31T20:55:37.319Z,20.27
2022-12-31T20:58:04.922Z,24.20
2022-12-31T21:00:32.097Z,31.13
2022-12-31T21:03:10.464Z,19.90
2022-12-31T21:05:51.645Z,20.40
2022-12-31T21:08:18.332Z,15.30
2022-12-31T21:10:47.804Z,13.97
2022-12-31T21:13:14.965Z,13.70
2022-12-31T21:15:41.348Z,20.13
2022-12-31T21:18:07.683Z,17.40
2022-12-31T21:20:34.021Z,18.93
2022-12-31T21:23:00.320Z,16.87
2022-12-31T21:25:26.654Z,15.00
2022-12-31T21:27:53.001Z,17.00
2022-12-31T21:30:20.840Z,13.20
2022-12-31T21:32:47.948Z,17.73
2022-12-31T21:35:42.281Z,14.83
2022-12-31T21:38:05.642Z,17.00
2022-12-31T21:40:33.219Z,16.80
2022-12-31T21:42:59.618Z,20.20
2022-12-31T21:45:26.028Z,16.20
2022-12-31T21:48:10.971Z,15.10
2022-12-31T21:50:37.284Z,15.33
2022-12-31T21:53:03.617Z,15.83
2022-12-31T21:55:48.361Z,17.07
2022-12-31T21:58:25.770Z,15.70
2022-12-31T22:01:12.033Z,18.77
2022-12-31T22:03:38.614Z,14.20
2022-12-31T22:06:12.028Z,13.80
2022-12-31T22:08:46.115Z,9.37
2022-12-31T22:11:13.985Z,7.40
2022-12-31T22:13:41.444Z,6.20
2022-12-31T22:16:08.635Z,5.63
2022-12-31T22:18:39.100Z,5.60
2022-12-31T22:21:18.300Z,4.73
2022-12-31T22:23:47.823Z,4.53
2022-12-31T22:26:15.815Z,4.37
2022-12-31T22:28:43.934Z,4.00
2022-12-31T22:31:16.624Z,3.30
2022-12-31T22:33:43.846Z,3.80
2022-12-31T22:36:13.165Z,4.10
2022-12-31T22:38:39.796Z,3.90
2022-12-31T22:41:23.174Z,3.53
2022-12-31T22:43:57.219Z,3.67
2022-12-31T22:46:28.931Z,3.90
2022-12-31T22:48:57.816Z,3.60
2022-12-31T22:51:24.367Z,3.73
2022-12-31T22:53:50.691Z,3.80
2022-12-31T22:56:18.629Z,4.10
2022-12-31T22:58:45.446Z,4.53
2022-12-31T23:01:20.509Z,4.97
2022-12-31T23:03:48.113Z,5.30
2022-12-31T23:06:15.131Z,6.70
2022-12-31T23:08:41.982Z,74.07
2022-12-31T23:11:11.347Z,55.97
2022-12-31T23:14:01.467Z,21.30
2022-12-31T23:16:48.312Z,38.77
2022-12-31T23:19:34.593Z,33.77
2022-12-31T23:22:19.840Z,39.47
2022-12-31T23:24:46.193Z,18.40
2022-12-31T23:27:12.611Z,17.20
2022-12-31T23:29:46.233Z,14.80
2022-12-31T23:32:17.731Z,18.40
2022-12-31T23:34:45.236Z,27.43
2022-12-31T23:37:13.442Z,42.60
2022-12-31T23:39:40.082Z,39.90
2022-12-31T23:42:06.546Z,37.27
2022-12-31T23:44:33.078Z,42.83
2022-12-31T23:46:59.575Z,48.77
2022-12-31T23:49:25.956Z,48.47
2022-12-31T23:51:52.388Z,51.27
2022-12-31T23:54:18.728Z,52.70
2022-12-31T23:56:45.167Z,53.10
2022-12-31T23:59:12.735Z,54.60
